East Falmouth, Massachusetts
Current Conditions -  °F | °C
As of 8:35 AM on Sunday 23 Nov 2014 (Local Time) from KFMH Reporting Station
Rain Showers Rain Showers  
Wind Chill: 42°   Ceiling: 8000
Heat Index: 48°   Visibility: 9mi
Dew Point: 37°   Wind: 17mph
Humidity: 66%   Direction: 240°WSW
Pressure: 30.16"   Gusts: 26mph
Location:  41.58°N, 70.56°W
Report Text: KFMH 231335Z 24015G23KT 9SM VCSH BKN080 09/03 A3016 RMK AO2
Loading
Personal Weather Stations






























Interactive Weather Map New forecast layout! Learn more

10-Day Weather Forecast

Advertisements
Track Severe Weather on mobile